Arsenal, Pennsylvania
Current Conditions -  °F | °C
As of 9:53 PM on Sunday 23 Nov 2014 (Local Time) from KAGC Reporting Station
Light Rain Light Rain  
Wind Chill: 12°   Ceiling: 8500
Heat Index: 12°   Visibility: 8mi
Dew Point:   Wind: 16mph
Humidity: 72%   Direction: 130°SE
Pressure: 29.64"   Gusts: NA
Location:  40.4738°N, 79.952°W
Report Text: KAGC 240253Z 13014KT 8SM -RA OVC085 12/07 A2964 RMK AO2 SLP041 P0000 60001 T01220072 58037
Loading
Personal Weather Stations






























Interactive Weather Map New forecast layout! Learn more

10-Day Weather Forecast

Advertisements
Track Severe Weather on mobile